createdAt,value
2023-04-07T00:01:14.493Z,29.8
2023-04-07T00:09:25.671Z,31.4
2023-04-07T00:11:27.652Z,31.2
2023-04-07T00:13:30.852Z,30
2023-04-07T00:16:34.238Z,30.1
2023-04-07T00:18:36.198Z,29.3
2023-04-07T00:20:39.736Z,30.4
2023-04-07T00:24:46.872Z,29.2
2023-04-07T00:26:48.851Z,30.5
2023-04-07T00:28:50.879Z,27.8
2023-04-07T00:30:52.893Z,28
2023-04-07T00:41:06.795Z,27.5
2023-04-07T00:45:10.753Z,23.5
2023-04-07T00:47:12.748Z,22.9
2023-04-07T00:49:14.711Z,21.3
2023-04-07T00:51:19.929Z,19.1
2023-04-07T00:53:21.938Z,17.7
2023-04-07T00:55:23.921Z,19
2023-04-07T00:57:25.883Z,15.4
2023-04-07T00:59:27.870Z,17.4
2023-04-07T01:03:32.143Z,15.2
2023-04-07T01:05:36.921Z,14.3
2023-04-07T01:07:38.889Z,13.6
2023-04-07T01:10:43.492Z,13.6
2023-04-07T01:12:45.445Z,13.2
2023-04-07T01:14:47.436Z,11.1
2023-04-07T01:16:49.435Z,9.2
2023-04-07T01:18:54.630Z,10
2023-04-07T01:20:56.618Z,9.4
2023-04-07T01:22:58.625Z,7.5
2023-04-07T01:25:00.591Z,8.4
2023-04-07T01:27:03.263Z,7.4
2023-04-07T01:29:05.226Z,6.8
2023-04-07T01:31:07.219Z,6.8
2023-04-07T01:35:14.442Z,7.6
2023-04-07T01:37:16.487Z,7
2023-04-07T01:39:18.405Z,7.4
2023-04-07T01:41:20.374Z,7.1
2023-04-07T02:03:48.743Z,7.8
2023-04-07T02:12:23.370Z,8.1
2023-04-07T02:14:29.513Z,7.4
2023-04-07T02:24:39.378Z,8.2
2023-04-07T02:26:41.353Z,6.7
2023-04-07T02:28:46.554Z,8.9
2023-04-07T02:30:48.572Z,8.6
2023-04-07T02:34:52.480Z,8.7
2023-04-07T02:36:54.508Z,8.7
2023-04-07T02:38:56.465Z,8.6
2023-04-07T02:40:58.431Z,7.9
2023-04-07T02:43:03.634Z,10
2023-04-07T02:45:05.606Z,8.3
2023-04-07T02:47:07.576Z,10.2
2023-04-07T02:49:09.538Z,11.9
2023-04-07T02:51:11.539Z,9.2
2023-04-07T02:53:13.506Z,8.8
2023-04-07T02:55:15.459Z,8.8
2023-04-07T02:57:20.690Z,9.9
2023-04-07T03:01:24.666Z,9.6
2023-04-07T03:02:27.352Z,11.5
2023-04-07T03:08:33.169Z,10.9
2023-04-07T03:14:42.355Z,9.4
2023-04-07T03:16:44.302Z,9.3
2023-04-07T03:18:46.285Z,9.2
2023-04-07T03:20:48.244Z,8.8
2023-04-07T03:22:50.263Z,10.2
2023-04-07T03:24:55.489Z,8.6
2023-04-07T03:31:01.431Z,9.2
2023-04-07T03:35:05.330Z,6.9
2023-04-07T03:37:07.299Z,8.2
2023-04-07T03:41:14.490Z,9.5
2023-04-07T03:43:16.445Z,7.8
2023-04-07T03:51:24.364Z,10.1
2023-04-07T03:53:29.553Z,8.6
2023-04-07T03:58:36.118Z,9.4
2023-04-07T04:00:38.116Z,9.3
2023-04-07T04:10:51.245Z,7.9
2023-04-07T04:14:55.225Z,8.9
2023-04-07T04:16:57.223Z,9.2
2023-04-07T04:18:59.190Z,8.2
2023-04-07T04:21:04.385Z,9.1
2023-04-07T04:25:08.393Z,9
2023-04-07T04:27:10.330Z,7.8
2023-04-07T04:29:12.332Z,8.9
2023-04-07T04:31:14.348Z,8.8
2023-04-07T04:33:16.323Z,10.2
2023-04-07T04:35:21.496Z,8.2
2023-04-07T04:41:27.448Z,7.7
2023-04-07T04:43:29.419Z,8.3
2023-04-07T04:45:31.383Z,8.3
2023-04-07T04:47:33.402Z,8.1
2023-04-07T04:54:45.168Z,7.8
2023-04-07T04:58:49.109Z,8.4
2023-04-07T05:00:51.093Z,8.1
2023-04-07T05:02:56.516Z,8.5
2023-04-07T05:04:58.361Z,8.2
2023-04-07T05:07:00.252Z,9.4
2023-04-07T05:09:02.237Z,8.9
2023-04-07T05:11:04.225Z,8.9
2023-04-07T05:13:06.187Z,9.5
2023-04-07T05:17:13.383Z,8.6
2023-04-07T05:19:15.346Z,7.8
2023-04-07T05:21:17.319Z,9.8
2023-04-07T05:25:21.309Z,9.1
2023-04-07T05:29:25.217Z,7.8
2023-04-07T05:31:30.491Z,7.7
2023-04-07T05:33:32.406Z,9.5
2023-04-07T05:39:38.354Z,9.4
2023-04-07T05:43:42.313Z,7.9
2023-04-07T05:56:24.264Z,7.7
2023-04-07T05:58:29.470Z,9.9
2023-04-07T06:00:31.469Z,9.3
2023-04-07T06:08:39.381Z,10.3
2023-04-07T06:35:13.248Z,8.8
2023-04-07T06:39:16.995Z,8
2023-04-07T06:46:29.110Z,7.6
2023-04-07T06:48:30.780Z,7
2023-04-07T06:52:34.719Z,6.3
2023-04-07T06:56:41.882Z,4.9
2023-04-07T07:00:45.852Z,4.9
2023-04-07T07:04:49.839Z,4
2023-04-07T07:08:57.079Z,4.7
2023-04-07T07:23:14.205Z,3.2
2023-04-07T07:25:16.199Z,3.4
2023-04-07T07:27:18.177Z,2.8
2023-04-07T07:31:22.204Z,3.5
2023-04-07T07:33:24.134Z,2.3
2023-04-07T07:35:26.127Z,1.8
2023-04-07T07:37:31.331Z,2.8
2023-04-07T07:39:33.318Z,2.7
2023-04-07T07:41:35.334Z,2.2
2023-04-07T07:42:37.930Z,3.1
2023-04-07T07:44:39.947Z,1.8
2023-04-07T07:46:41.990Z,2.6
2023-04-07T07:48:43.884Z,2.6
2023-04-07T07:50:49.154Z,3.6
2023-04-07T07:52:51.117Z,3.9
2023-04-07T07:54:53.126Z,2.4
2023-04-07T07:56:55.131Z,2.5
2023-04-07T07:58:58.264Z,2.5
2023-04-07T08:00:59.120Z,2.5
2023-04-07T08:03:01.151Z,2.8
2023-04-07T08:05:06.351Z,2.5
2023-04-07T08:07:08.297Z,2.2
2023-04-07T08:09:10.278Z,2.8
2023-04-07T08:11:12.278Z,2.6
2023-04-07T08:15:16.262Z,2.5
2023-04-07T08:21:25.440Z,3.3
2023-04-07T08:33:40.623Z,2.1
2023-04-07T08:35:42.676Z,2.8
2023-04-07T08:38:47.247Z,1.9
2023-04-07T08:40:49.277Z,2.5
2023-04-07T08:42:51.256Z,2.2
2023-04-07T08:44:53.243Z,2.8
2023-04-07T08:46:58.414Z,2.4
2023-04-07T08:49:00.393Z,1.9
2023-04-07T08:55:06.386Z,1.4
2023-04-07T08:57:08.379Z,2.1
2023-04-07T09:01:15.635Z,2
2023-04-07T09:03:17.703Z,1.8
2023-04-07T09:11:25.611Z,1.8
2023-04-07T09:13:27.592Z,2.2
2023-04-07T09:17:34.886Z,2.1
2023-04-07T09:19:36.830Z,2
2023-04-07T09:21:38.827Z,2.9
2023-04-07T09:23:40.858Z,2.1
2023-04-07T09:29:50.017Z,2.6
2023-04-07T09:31:52.228Z,3
2023-04-07T09:33:54.034Z,2.1
2023-04-07T09:36:22.870Z,2.5
2023-04-07T09:38:24.877Z,3.2
2023-04-07T09:40:26.852Z,1.7
2023-04-07T09:42:32.090Z,2.1
2023-04-07T09:44:34.055Z,2.5
2023-04-07T09:46:36.105Z,2.7
2023-04-07T09:48:38.093Z,2.1
2023-04-07T09:56:51.005Z,2.2
2023-04-07T09:58:51.200Z,1.8
2023-04-07T10:04:57.107Z,1.7
2023-04-07T10:06:59.088Z,1.8
2023-04-07T10:13:08.139Z,2.2
2023-04-07T10:19:14.047Z,1.9
2023-04-07T10:21:16.053Z,2.4
2023-04-07T10:23:18.070Z,2
2023-04-07T10:25:23.272Z,3.7
2023-04-07T10:27:25.279Z,2.5
2023-04-07T10:29:27.176Z,2.2
2023-04-07T10:30:29.788Z,2.9
2023-04-07T10:32:31.957Z,2.2
2023-04-07T10:34:33.804Z,3.3
2023-04-07T10:36:35.778Z,2.6
2023-04-07T10:38:40.951Z,2.2
2023-04-07T10:40:42.933Z,2.6
2023-04-07T10:44:46.930Z,2.6
2023-04-07T10:50:52.855Z,2.9
2023-04-07T10:52:58.096Z,3.6
2023-04-07T10:57:02.123Z,3.4
2023-04-07T10:59:04.130Z,4.5
2023-04-07T11:05:10.136Z,3.8
2023-04-07T11:07:15.350Z,4.3
2023-04-07T11:09:17.348Z,6.2
2023-04-07T11:11:19.355Z,4.3
2023-04-07T11:13:21.344Z,4.6
2023-04-07T11:15:23.314Z,3.3
2023-04-07T11:19:27.288Z,3.6
2023-04-07T11:21:32.512Z,4.8
2023-04-07T11:23:34.539Z,5.4
2023-04-07T11:25:36.546Z,4
2023-04-07T11:28:41.162Z,5.7
2023-04-07T11:30:43.142Z,4.3
2023-04-07T11:32:45.204Z,3.8
2023-04-07T11:42:58.242Z,3.9
2023-04-07T11:47:02.296Z,5.3
2023-04-07T11:49:07.450Z,6.5
2023-04-07T11:51:09.360Z,4.9
2023-04-07T11:53:11.407Z,5
2023-04-07T11:55:13.374Z,7.9
2023-04-07T11:57:15.363Z,7.8
2023-04-07T12:01:19.321Z,4.9
2023-04-07T12:03:26.166Z,4.6
2023-04-07T12:05:27.952Z,8.5
2023-04-07T12:07:29.913Z,4.8
2023-04-07T12:09:31.959Z,5
2023-04-07T12:11:33.920Z,4.2
2023-04-07T12:19:45.044Z,3.8
2023-04-07T12:21:47.073Z,4.5
2023-04-07T12:22:49.698Z,4.1
2023-04-07T12:24:51.692Z,4.2
2023-04-07T12:26:53.684Z,4.3
2023-04-07T12:28:55.666Z,5.1
2023-04-07T12:35:04.777Z,4.4
2023-04-07T12:37:06.778Z,4.4
2023-04-07T12:41:10.782Z,5.1
2023-04-07T12:43:12.779Z,4.1
2023-04-07T12:45:18.028Z,4.5
2023-04-07T12:47:20.164Z,5
2023-04-07T12:51:24.021Z,3.9
2023-04-07T12:59:35.136Z,5.1
2023-04-07T13:01:37.282Z,4.4
2023-04-07T13:03:39.319Z,3.7
2023-04-07T13:05:41.113Z,4.8
2023-04-07T13:13:53.208Z,4.1
2023-04-07T13:15:54.029Z,5.1
2023-04-07T13:17:55.972Z,4.1
2023-04-07T13:40:50.442Z,3.4
2023-04-07T13:59:11.333Z,3.7
2023-04-07T14:01:13.389Z,3.9
2023-04-07T14:03:15.510Z,4
2023-04-07T14:05:17.357Z,4.1
2023-04-07T14:07:19.351Z,4.2
2023-04-07T14:09:24.581Z,5.7
2023-04-07T14:11:26.594Z,3
2023-04-07T14:13:28.574Z,3.7
2023-04-07T14:14:31.209Z,3
2023-04-07T14:18:35.199Z,3.6
2023-04-07T14:22:42.439Z,11.1
2023-04-07T14:24:44.460Z,5.5
2023-04-07T14:28:48.190Z,3.6
2023-04-07T14:30:50.337Z,3.8
2023-04-07T14:34:54.206Z,4.8
2023-04-07T14:36:59.351Z,4.2
2023-04-07T14:39:01.322Z,4.5
2023-04-07T14:43:07.233Z,3.3
2023-04-07T14:45:07.212Z,1.8
2023-04-07T14:47:09.218Z,2.3
2023-04-07T14:49:11.204Z,2.4
2023-04-07T14:51:16.463Z,2.2
2023-04-07T14:53:18.448Z,3.8
2023-04-07T14:55:20.430Z,4.3
2023-04-07T14:57:22.469Z,3.5
2023-04-07T14:59:24.439Z,5.5
2023-04-07T15:05:33.510Z,6.2
2023-04-07T15:09:37.588Z,5.8
2023-04-07T15:10:40.152Z,6.1
2023-04-07T15:12:42.136Z,5.7
2023-04-07T15:14:44.134Z,6
2023-04-07T15:16:46.114Z,9.5
2023-04-07T15:18:51.336Z,7.5
2023-04-07T15:20:53.329Z,8.5
2023-04-07T15:22:55.329Z,7.3
2023-04-07T15:24:57.337Z,8.4
2023-04-07T15:26:59.300Z,8.3
2023-04-07T15:29:01.297Z,9.4
2023-04-07T15:31:03.341Z,10.5
2023-04-07T15:33:08.570Z,9.9
2023-04-07T15:35:10.501Z,11.5
2023-04-07T15:37:12.463Z,9.4
2023-04-07T15:41:16.536Z,11
2023-04-07T15:45:20.420Z,11.2
2023-04-07T15:49:27.600Z,10.4
2023-04-07T15:51:29.624Z,9.2
2023-04-07T15:53:31.582Z,11.4
2023-04-07T15:55:33.553Z,11.5
2023-04-07T15:57:35.575Z,10.5
2023-04-07T16:03:44.857Z,11.2
2023-04-07T16:08:51.344Z,9.2
2023-04-07T16:10:53.344Z,11.3
2023-04-07T16:12:55.637Z,9.4
2023-04-07T16:15:00.570Z,9.4
2023-04-07T16:19:04.517Z,9.5
2023-04-07T16:21:06.505Z,8.9
2023-04-07T16:23:08.465Z,10.1
2023-04-07T16:25:10.500Z,8.6
2023-04-07T16:27:12.452Z,9.3
2023-04-07T16:29:17.973Z,9.6
2023-04-07T16:31:19.768Z,9.4
2023-04-07T16:33:21.644Z,8.8
2023-04-07T16:35:23.665Z,7.9
2023-04-07T16:37:25.649Z,8.6
2023-04-07T16:41:29.599Z,9.1
2023-04-07T16:43:34.834Z,9.8
2023-04-07T16:45:36.864Z,9.1
2023-04-07T16:47:38.822Z,8.4
2023-04-07T16:49:40.800Z,8.5
2023-04-07T16:53:44.770Z,7.9
2023-04-07T16:59:53.938Z,7.7
2023-04-07T17:01:56.011Z,8.2
2023-04-07T17:06:26.587Z,9.6
2023-04-07T17:08:28.568Z,8
2023-04-07T17:10:33.769Z,8.2
2023-04-07T17:12:35.775Z,9.2
2023-04-07T17:14:37.725Z,9.9
2023-04-07T17:16:39.731Z,9.3
2023-04-07T17:18:41.729Z,9.2
2023-04-07T17:22:45.668Z,8.3
2023-04-07T17:24:50.922Z,8.3
2023-04-07T17:26:52.886Z,8.2
2023-04-07T17:28:54.872Z,8.3
2023-04-07T17:30:56.918Z,7.1
2023-04-07T17:32:58.899Z,9
2023-04-07T17:35:00.826Z,8.2
2023-04-07T17:37:02.791Z,9.4
2023-04-07T17:39:08.060Z,8.4
2023-04-07T17:41:10.004Z,9.2
2023-04-07T17:43:11.992Z,7.1
2023-04-07T17:45:13.950Z,7.5
2023-04-07T17:49:17.920Z,7.8
2023-04-07T17:51:19.907Z,6.8
2023-04-07T17:55:28.668Z,7.3
2023-04-07T17:57:30.624Z,8.8
2023-04-07T17:58:33.213Z,9.1
2023-04-07T18:02:37.378Z,9.8
2023-04-07T18:04:39.283Z,9.4
2023-04-07T18:06:44.350Z,9.6
2023-04-07T18:08:46.324Z,10.6
2023-04-07T18:10:48.316Z,9.7
2023-04-07T18:14:52.263Z,16.8
2023-04-07T18:16:54.259Z,15.6
2023-04-07T18:18:56.248Z,14.5
2023-04-07T18:21:01.473Z,14.9
2023-04-07T18:23:03.466Z,15.5
2023-04-07T18:25:05.438Z,19.5
2023-04-07T18:27:07.436Z,18.2
2023-04-07T18:29:10.278Z,17.1
2023-04-07T18:31:11.384Z,20.1
2023-04-07T18:33:13.360Z,14.6
2023-04-07T18:35:18.561Z,16.3
2023-04-07T18:37:20.488Z,17
2023-04-07T18:39:22.511Z,15.7
2023-04-07T18:41:24.456Z,17.4
2023-04-07T18:43:26.452Z,19.1
2023-04-07T18:45:28.407Z,17.1
2023-04-07T18:47:30.378Z,17.1
2023-04-07T18:49:35.551Z,17
2023-04-07T18:51:37.526Z,18.4
2023-04-07T18:53:39.504Z,16.2
2023-04-07T18:54:42.083Z,17.4
2023-04-07T18:58:46.053Z,17.6
2023-04-07T19:08:59.147Z,19.6
2023-04-07T19:31:27.203Z,27.9
2023-04-07T19:33:29.116Z,24.9
2023-04-07T19:35:31.096Z,25.9
2023-04-07T19:37:33.088Z,28
2023-04-07T19:39:35.063Z,26.3
2023-04-07T19:41:37.028Z,27.9
2023-04-07T19:43:39.011Z,29.7
2023-04-07T19:45:44.241Z,30.1
2023-04-07T19:47:46.207Z,29
2023-04-07T19:49:48.148Z,30.4
2023-04-07T19:50:50.768Z,31.9
2023-04-07T19:59:01.899Z,31.5
2023-04-07T20:05:07.784Z,26.6
2023-04-07T20:07:09.737Z,24.3
2023-04-07T20:13:18.905Z,22.4
2023-04-07T20:21:26.795Z,20.9
2023-04-07T20:23:28.772Z,19
2023-04-07T20:27:35.924Z,24.9
2023-04-07T20:29:37.895Z,31.6
2023-04-07T20:31:39.862Z,33.1
2023-04-07T20:33:41.814Z,32.7
2023-04-07T20:35:43.802Z,34.7
2023-04-07T20:37:45.774Z,36.1
2023-04-07T20:39:47.698Z,33.8
2023-04-07T20:41:52.892Z,34
2023-04-07T20:43:54.932Z,30.8
2023-04-07T20:48:25.742Z,32.6
2023-04-07T20:50:27.668Z,31.3
2023-04-07T20:52:29.600Z,31.9
2023-04-07T20:54:34.815Z,33.2
2023-04-07T20:58:38.718Z,29.7
2023-04-07T21:00:40.705Z,27.8
2023-04-07T21:02:42.776Z,28.7
2023-04-07T21:04:44.592Z,27.9
2023-04-07T21:06:46.563Z,26.4
2023-04-07T21:08:51.746Z,27.7
2023-04-07T21:10:53.682Z,26.1
2023-04-07T21:19:01.503Z,24.4
2023-04-07T21:21:03.464Z,22.3
2023-04-07T21:27:12.540Z,31.2
2023-04-07T21:29:14.523Z,32.8
2023-04-07T21:31:16.483Z,32.1
2023-04-07T21:33:18.421Z,29
2023-04-07T21:35:20.416Z,31.8
2023-04-07T21:37:25.530Z,32.8
2023-04-07T21:39:27.492Z,34.7
2023-04-07T21:41:29.465Z,28.8
2023-04-07T21:42:32.042Z,33.4
2023-04-07T22:00:52.829Z,28.3
2023-04-07T22:02:55.068Z,29
2023-04-07T22:04:59.899Z,26.4
2023-04-07T22:07:01.896Z,25.9
2023-04-07T22:09:04.076Z,25.9
2023-04-07T22:11:05.791Z,24
2023-04-07T22:13:07.728Z,25.5
2023-04-07T22:21:18.759Z,23
2023-04-07T22:23:20.694Z,26.5
2023-04-07T22:25:22.647Z,23.5
2023-04-07T22:27:24.587Z,22.7
2023-04-07T22:33:33.629Z,24.1
2023-04-07T22:35:35.600Z,22.2
2023-04-07T22:37:37.512Z,26.6
2023-04-07T22:38:40.056Z,24.3
2023-04-07T22:40:41.979Z,22.5
2023-04-07T22:42:43.952Z,21.5
2023-04-07T22:44:46.498Z,21.7
2023-04-07T22:46:51.071Z,25.5
2023-04-07T22:50:54.927Z,21.7
2023-04-07T23:07:13.579Z,23.4
2023-04-07T23:09:15.545Z,20.7
2023-04-07T23:19:28.780Z,25.7
2023-04-07T23:23:32.281Z,26.5
2023-04-07T23:25:34.223Z,24.9
2023-04-07T23:27:36.127Z,25.2
2023-04-07T23:31:43.257Z,23.3
2023-04-07T23:34:47.744Z,25
2023-04-07T23:36:49.667Z,25.2
2023-04-07T23:38:51.768Z,26.5
2023-04-07T23:40:53.579Z,25.5
2023-04-07T23:42:58.673Z,28.9
2023-04-07T23:51:07.890Z,25.3
2023-04-07T23:53:09.809Z,26.9
2023-04-07T23:55:11.723Z,25.1
2023-04-07T23:57:16.889Z,27
